Paynes Point, Illinois
Current Conditions -  °F | °C
As of 8:35 PM on Saturday 20 Dec 2014 (Local Time) from KRPJ Reporting Station
Overcast Overcast  
Wind Chill: 23°   Ceiling: 3900
Heat Index: 30°   Visibility: 7mi
Dew Point: 28°   Wind: 8mph
Humidity: 92%   Direction: 160°SSE
Pressure: 30.24"   Gusts: NA
Location:  41.9937°N, 89.1961°W
Report Text: KRPJ 210235Z AUTO 16007KT 7SM SCT021 OVC039 M01/M02 A3024 RMK AO2 T10101021
Loading
Personal Weather Stations






























Interactive Weather Map New forecast layout! Learn more

10-Day Weather Forecast

Advertisements
Track Severe Weather on mobile